sensor_id;sensor_type;location;lat;lon;timestamp;pressure;altitude;pressure_sealevel;temperature;humidity
23996;BME280;12207;50.076;8.848;2022-10-23T00:01:18;100140.78;;;11.43;100.00
23996;BME280;12207;50.076;8.848;2022-10-23T00:03:45;100136.69;;;11.46;100.00
23996;BME280;12207;50.076;8.848;2022-10-23T00:06:13;100139.75;;;11.39;100.00
23996;BME280;12207;50.076;8.848;2022-10-23T00:08:40;100138.72;;;11.35;100.00
23996;BME280;12207;50.076;8.848;2022-10-23T00:11:10;100138.56;;;11.32;100.00
23996;BME280;12207;50.076;8.848;2022-10-23T00:13:37;100144.56;;;11.33;100.00
23996;BME280;12207;50.076;8.848;2022-10-23T00:16:04;100145.97;;;11.26;100.00
23996;BME280;12207;50.076;8.848;2022-10-23T00:18:30;100145.91;;;11.25;100.00
23996;BME280;12207;50.076;8.848;2022-10-23T00:20:57;100153.19;;;11.17;100.00
23996;BME280;12207;50.076;8.848;2022-10-23T00:23:23;100147.22;;;11.16;100.00
23996;BME280;12207;50.076;8.848;2022-10-23T00:25:50;100143.50;;;11.10;100.00
23996;BME280;12207;50.076;8.848;2022-10-23T00:28:16;100142.38;;;11.05;100.00
23996;BME280;12207;50.076;8.848;2022-10-23T00:30:43;100146.53;;;11.03;100.00
23996;BME280;12207;50.076;8.848;2022-10-23T00:33:09;100141.38;;;11.01;100.00
23996;BME280;12207;50.076;8.848;2022-10-23T00:35:40;100143.06;;;11.01;100.00
23996;BME280;12207;50.076;8.848;2022-10-23T00:38:06;100142.91;;;10.98;100.00
23996;BME280;12207;50.076;8.848;2022-10-23T00:40:34;100138.50;;;10.95;100.00
23996;BME280;12207;50.076;8.848;2022-10-23T00:43:00;100140.09;;;10.93;100.00
23996;BME280;12207;50.076;8.848;2022-10-23T00:45:28;100136.75;;;10.94;100.00
23996;BME280;12207;50.076;8.848;2022-10-23T00:47:56;100120.09;;;10.84;100.00
23996;BME280;12207;50.076;8.848;2022-10-23T00:50:24;100124.50;;;10.87;100.00
23996;BME280;12207;50.076;8.848;2022-10-23T00:52:51;100126.19;;;10.86;100.00
23996;BME280;12207;50.076;8.848;2022-10-23T00:55:19;100133.03;;;10.87;100.00
23996;BME280;12207;50.076;8.848;2022-10-23T00:57:47;100135.53;;;10.86;100.00
23996;BME280;12207;50.076;8.848;2022-10-23T01:00:22;100125.00;;;10.80;100.00
23996;BME280;12207;50.076;8.848;2022-10-23T01:02:48;100126.81;;;10.82;100.00
23996;BME280;12207;50.076;8.848;2022-10-23T01:05:15;100119.00;;;10.79;100.00
23996;BME280;12207;50.076;8.848;2022-10-23T01:07:48;100112.00;;;10.75;100.00
23996;BME280;12207;50.076;8.848;2022-10-23T01:10:19;100108.34;;;10.70;100.00
23996;BME280;12207;50.076;8.848;2022-10-23T01:12:57;100103.09;;;10.67;100.00
23996;BME280;12207;50.076;8.848;2022-10-23T01:15:28;100096.97;;;10.63;100.00
23996;BME280;12207;50.076;8.848;2022-10-23T01:20:41;100087.25;;;10.56;100.00
23996;BME280;12207;50.076;8.848;2022-10-23T01:28:24;100089.56;;;10.52;100.00
23996;BME280;12207;50.076;8.848;2022-10-23T01:30:51;100088.63;;;10.49;100.00
23996;BME280;12207;50.076;8.848;2022-10-23T01:33:26;100092.84;;;10.49;100.00
23996;BME280;12207;50.076;8.848;2022-10-23T01:35:59;100099.47;;;10.45;100.00
23996;BME280;12207;50.076;8.848;2022-10-23T01:38:34;100090.88;;;10.43;100.00
23996;BME280;12207;50.076;8.848;2022-10-23T01:41:06;100090.81;;;10.42;100.00
23996;BME280;12207;50.076;8.848;2022-10-23T01:43:37;100089.84;;;10.40;100.00
23996;BME280;12207;50.076;8.848;2022-10-23T01:46:07;100076.13;;;10.38;100.00
23996;BME280;12207;50.076;8.848;2022-10-23T01:48:34;100081.38;;;10.41;100.00
23996;BME280;12207;50.076;8.848;2022-10-23T01:51:03;100083.94;;;10.41;100.00
23996;BME280;12207;50.076;8.848;2022-10-23T01:53:32;100086.13;;;10.33;100.00
23996;BME280;12207;50.076;8.848;2022-10-23T01:56:00;100079.47;;;10.37;100.00
23996;BME280;12207;50.076;8.848;2022-10-23T01:58:27;100081.16;;;10.36;100.00
23996;BME280;12207;50.076;8.848;2022-10-23T02:00:55;100079.28;;;10.32;100.00
23996;BME280;12207;50.076;8.848;2022-10-23T02:03:24;100074.38;;;10.37;100.00
23996;BME280;12207;50.076;8.848;2022-10-23T02:05:52;100074.94;;;10.31;100.00
23996;BME280;12207;50.076;8.848;2022-10-23T02:08:18;100072.41;;;10.31;100.00
23996;BME280;12207;50.076;8.848;2022-10-23T02:10:48;100063.88;;;10.31;100.00
23996;BME280;12207;50.076;8.848;2022-10-23T02:13:28;100060.59;;;10.33;100.00
23996;BME280;12207;50.076;8.848;2022-10-23T02:18:29;100054.53;;;10.31;100.00
23996;BME280;12207;50.076;8.848;2022-10-23T02:21:00;100048.47;;;10.29;100.00
23996;BME280;12207;50.076;8.848;2022-10-23T02:25:58;100038.28;;;10.29;100.00
23996;BME280;12207;50.076;8.848;2022-10-23T02:28:28;100039.09;;;10.28;100.00
23996;BME280;12207;50.076;8.848;2022-10-23T02:30:57;100051.84;;;10.28;100.00
23996;BME280;12207;50.076;8.848;2022-10-23T02:33:25;100046.56;;;10.25;100.00
23996;BME280;12207;50.076;8.848;2022-10-23T02:35:52;100050.63;;;10.21;100.00
23996;BME280;12207;50.076;8.848;2022-10-23T02:38:32;100041.97;;;10.18;100.00
23996;BME280;12207;50.076;8.848;2022-10-23T02:41:02;100044.56;;;10.19;100.00
23996;BME280;12207;50.076;8.848;2022-10-23T02:43:34;100035.09;;;10.17;100.00
23996;BME280;12207;50.076;8.848;2022-10-23T02:48:52;100029.63;;;10.09;100.00
23996;BME280;12207;50.076;8.848;2022-10-23T02:51:21;100010.84;;;9.91;100.00
23996;BME280;12207;50.076;8.848;2022-10-23T02:54:02;100005.16;;;9.96;100.00
23996;BME280;12207;50.076;8.848;2022-10-23T02:56:52;100005.97;;;9.95;100.00
23996;BME280;12207;50.076;8.848;2022-10-23T02:59:29;100006.97;;;9.99;100.00
23996;BME280;12207;50.076;8.848;2022-10-23T03:02:00;100014.16;;;10.06;100.00
23996;BME280;12207;50.076;8.848;2022-10-23T03:04:28;100021.00;;;10.07;100.00
23996;BME280;12207;50.076;8.848;2022-10-23T03:06:55;100018.59;;;10.10;100.00
23996;BME280;12207;50.076;8.848;2022-10-23T03:09:24;100016.88;;;10.09;100.00
23996;BME280;12207;50.076;8.848;2022-10-23T03:11:51;100015.19;;;10.10;100.00
23996;BME280;12207;50.076;8.848;2022-10-23T03:14:17;100019.47;;;10.11;100.00
23996;BME280;12207;50.076;8.848;2022-10-23T03:16:44;100018.69;;;10.12;100.00
23996;BME280;12207;50.076;8.848;2022-10-23T03:19:11;100003.25;;;10.09;100.00
23996;BME280;12207;50.076;8.848;2022-10-23T03:21:38;100002.13;;;10.03;100.00
23996;BME280;12207;50.076;8.848;2022-10-23T03:24:05;100004.03;;;10.08;100.00
23996;BME280;12207;50.076;8.848;2022-10-23T03:26:31;100003.09;;;10.06;100.00
23996;BME280;12207;50.076;8.848;2022-10-23T03:28:58;100011.53;;;10.04;100.00
23996;BME280;12207;50.076;8.848;2022-10-23T03:31:24;100016.78;;;10.08;100.00
23996;BME280;12207;50.076;8.848;2022-10-23T03:33:51;100012.34;;;10.03;100.00
23996;BME280;12207;50.076;8.848;2022-10-23T03:36:17;100005.34;;;9.99;100.00
23996;BME280;12207;50.076;8.848;2022-10-23T03:38:44;100006.13;;;9.98;100.00
23996;BME280;12207;50.076;8.848;2022-10-23T03:41:11;100005.97;;;9.95;100.00
23996;BME280;12207;50.076;8.848;2022-10-23T03:43:37;100011.06;;;9.95;100.00
23996;BME280;12207;50.076;8.848;2022-10-23T03:46:04;100006.63;;;9.91;100.00
23996;BME280;12207;50.076;8.848;2022-10-23T03:48:34;100000.97;;;9.80;100.00
23996;BME280;12207;50.076;8.848;2022-10-23T03:51:04;100009.41;;;9.79;100.00
23996;BME280;12207;50.076;8.848;2022-10-23T03:53:30;100015.28;;;9.78;100.00
23996;BME280;12207;50.076;8.848;2022-10-23T03:55:57;100004.06;;;9.75;100.00
23996;BME280;12207;50.076;8.848;2022-10-23T03:58:23;100003.91;;;9.72;100.00
23996;BME280;12207;50.076;8.848;2022-10-23T04:00:50;99992.63;;;9.67;100.00
23996;BME280;12207;50.076;8.848;2022-10-23T04:03:16;99989.13;;;9.65;100.00
23996;BME280;12207;50.076;8.848;2022-10-23T04:05:43;100001.75;;;9.63;100.00
23996;BME280;12207;50.076;8.848;2022-10-23T04:08:09;100010.13;;;9.61;100.00
23996;BME280;12207;50.076;8.848;2022-10-23T04:10:36;100014.28;;;9.58;100.00
23996;BME280;12207;50.076;8.848;2022-10-23T04:13:02;100015.16;;;9.59;100.00
23996;BME280;12207;50.076;8.848;2022-10-23T04:15:29;100014.28;;;9.58;100.00
23996;BME280;12207;50.076;8.848;2022-10-23T04:17:55;100004.88;;;9.57;100.00
23996;BME280;12207;50.076;8.848;2022-10-23T04:20:22;100004.09;;;9.58;100.00
23996;BME280;12207;50.076;8.848;2022-10-23T04:22:48;100003.53;;;9.64;100.00
23996;BME280;12207;50.076;8.848;2022-10-23T04:25:15;100005.84;;;9.59;100.00
23996;BME280;12207;50.076;8.848;2022-10-23T04:27:42;100007.56;;;9.61;100.00
23996;BME280;12207;50.076;8.848;2022-10-23T04:30:08;100014.34;;;9.60;100.00
23996;BME280;12207;50.076;8.848;2022-10-23T04:32:35;100016.19;;;9.63;100.00
23996;BME280;12207;50.076;8.848;2022-10-23T04:35:01;100027.34;;;9.65;100.00
23996;BME280;12207;50.076;8.848;2022-10-23T04:37:28;100014.50;;;9.63;100.00
23996;BME280;12207;50.076;8.848;2022-10-23T04:39:54;100012.81;;;9.64;100.00
23996;BME280;12207;50.076;8.848;2022-10-23T04:42:21;100009.41;;;9.63;100.00
23996;BME280;12207;50.076;8.848;2022-10-23T04:44:48;100005.84;;;9.59;100.00
23996;BME280;12207;50.076;8.848;2022-10-23T04:47:14;100002.97;;;9.53;100.00
23996;BME280;12207;50.076;8.848;2022-10-23T04:49:41;99994.53;;;9.54;100.00
23996;BME280;12207;50.076;8.848;2022-10-23T04:52:07;99995.25;;;9.52;100.00
23996;BME280;12207;50.076;8.848;2022-10-23T04:54:37;100002.09;;;9.53;100.00
23996;BME280;12207;50.076;8.848;2022-10-23T04:57:03;99997.81;;;9.52;100.00
23996;BME280;12207;50.076;8.848;2022-10-23T04:59:30;99996.13;;;9.52;100.00
23996;BME280;12207;50.076;8.848;2022-10-23T05:01:56;100002.75;;;9.49;100.00
23996;BME280;12207;50.076;8.848;2022-10-23T05:04:23;100007.09;;;9.51;100.00
23996;BME280;12207;50.076;8.848;2022-10-23T05:06:49;100008.00;;;9.52;100.00
23996;BME280;12207;50.076;8.848;2022-10-23T05:09:16;99997.66;;;9.49;100.00
23996;BME280;12207;50.076;8.848;2022-10-23T05:11:42;99989.81;;;9.46;100.00
23996;BME280;12207;50.076;8.848;2022-10-23T05:14:09;99985.53;;;9.45;100.00
23996;BME280;12207;50.076;8.848;2022-10-23T05:16:37;99992.94;;;9.40;100.00
23996;BME280;12207;50.076;8.848;2022-10-23T05:19:05;99992.03;;;9.40;100.00
23996;BME280;12207;50.076;8.848;2022-10-23T05:21:32;99997.41;;;9.44;100.00
23996;BME280;12207;50.076;8.848;2022-10-23T05:24:00;99996.44;;;9.42;100.00
23996;BME280;12207;50.076;8.848;2022-10-23T05:26:27;100002.22;;;9.40;100.00
23996;BME280;12207;50.076;8.848;2022-10-23T05:28:54;99997.13;;;9.40;100.00
23996;BME280;12207;50.076;8.848;2022-10-23T05:31:20;99991.97;;;9.38;100.00
23996;BME280;12207;50.076;8.848;2022-10-23T05:33:48;99989.44;;;9.38;100.00
23996;BME280;12207;50.076;8.848;2022-10-23T05:36:14;99986.19;;;9.41;100.00
23996;BME280;12207;50.076;8.848;2022-10-23T05:38:41;99987.59;;;9.35;100.00
23996;BME280;12207;50.076;8.848;2022-10-23T05:41:08;99991.00;;;9.36;100.00
23996;BME280;12207;50.076;8.848;2022-10-23T05:43:34;99990.31;;;9.39;100.00
23996;BME280;12207;50.076;8.848;2022-10-23T05:46:04;99984.34;;;9.38;100.00
23996;BME280;12207;50.076;8.848;2022-10-23T05:48:31;99987.19;;;9.28;100.00
23996;BME280;12207;50.076;8.848;2022-10-23T05:51:04;99974.72;;;9.32;100.00
23996;BME280;12207;50.076;8.848;2022-10-23T05:53:31;99970.47;;;9.33;100.00
23996;BME280;12207;50.076;8.848;2022-10-23T05:56:07;99968.91;;;9.35;100.00
23996;BME280;12207;50.076;8.848;2022-10-23T05:58:34;99963.66;;;9.32;100.00
23996;BME280;12207;50.076;8.848;2022-10-23T06:01:04;99959.59;;;9.35;100.00
23996;BME280;12207;50.076;8.848;2022-10-23T06:03:31;99952.66;;;9.33;100.00
23996;BME280;12207;50.076;8.848;2022-10-23T06:05:57;99953.53;;;9.33;100.00
23996;BME280;12207;50.076;8.848;2022-10-23T06:08:24;99946.94;;;9.37;100.00
23996;BME280;12207;50.076;8.848;2022-10-23T06:10:50;99950.75;;;9.45;100.00
23996;BME280;12207;50.076;8.848;2022-10-23T06:13:17;99948.84;;;9.41;100.00
23996;BME280;12207;50.076;8.848;2022-10-23T06:15:43;99945.97;;;9.51;100.00
23996;BME280;12207;50.076;8.848;2022-10-23T06:18:10;99938.31;;;9.51;100.00
23996;BME280;12207;50.076;8.848;2022-10-23T06:20:37;99935.94;;;9.54;100.00
23996;BME280;12207;50.076;8.848;2022-10-23T06:23:04;99936.03;;;9.56;100.00
23996;BME280;12207;50.076;8.848;2022-10-23T06:25:31;99935.22;;;9.57;100.00
23996;BME280;12207;50.076;8.848;2022-10-23T06:27:57;99938.56;;;9.56;100.00
23996;BME280;12207;50.076;8.848;2022-10-23T06:30:24;99941.56;;;9.65;100.00
23996;BME280;12207;50.076;8.848;2022-10-23T06:32:50;99936.63;;;9.68;100.00
23996;BME280;12207;50.076;8.848;2022-10-23T06:35:17;99941.06;;;9.72;100.00
23996;BME280;12207;50.076;8.848;2022-10-23T06:37:43;99942.13;;;9.76;100.00
23996;BME280;12207;50.076;8.848;2022-10-23T06:40:10;99951.00;;;9.84;100.00
23996;BME280;12207;50.076;8.848;2022-10-23T06:42:36;99957.16;;;9.88;100.00
23996;BME280;12207;50.076;8.848;2022-10-23T06:45:03;99942.09;;;9.92;100.00
23996;BME280;12207;50.076;8.848;2022-10-23T06:47:30;99956.56;;;9.93;100.00
23996;BME280;12207;50.076;8.848;2022-10-23T06:49:56;99950.75;;;9.96;100.00
23996;BME280;12207;50.076;8.848;2022-10-23T06:52:23;99948.44;;;10.00;100.00
23996;BME280;12207;50.076;8.848;2022-10-23T06:54:49;99948.81;;;10.08;100.00
23996;BME280;12207;50.076;8.848;2022-10-23T06:57:16;99943.50;;;10.21;100.00
23996;BME280;12207;50.076;8.848;2022-10-23T06:59:42;99948.06;;;10.27;100.00
23996;BME280;12207;50.076;8.848;2022-10-23T07:02:09;99950.84;;;10.32;100.00
23996;BME280;12207;50.076;8.848;2022-10-23T07:04:35;99950.97;;;10.35;100.00
23996;BME280;12207;50.076;8.848;2022-10-23T07:07:02;99949.75;;;10.44;100.00
23996;BME280;12207;50.076;8.848;2022-10-23T07:09:28;99946.69;;;10.52;100.00
23996;BME280;12207;50.076;8.848;2022-10-23T07:11:55;99939.31;;;10.58;100.00
23996;BME280;12207;50.076;8.848;2022-10-23T07:14:22;99953.59;;;10.72;100.00
23996;BME280;12207;50.076;8.848;2022-10-23T07:16:48;99955.72;;;10.81;100.00
23996;BME280;12207;50.076;8.848;2022-10-23T07:19:15;99954.59;;;10.93;100.00
23996;BME280;12207;50.076;8.848;2022-10-23T07:21:41;99946.47;;;11.02;100.00
23996;BME280;12207;50.076;8.848;2022-10-23T07:24:08;99952.25;;;11.17;100.00
23996;BME280;12207;50.076;8.848;2022-10-23T07:26:34;99951.16;;;11.30;100.00
23996;BME280;12207;50.076;8.848;2022-10-23T07:29:01;99943.34;;;11.47;100.00
23996;BME280;12207;50.076;8.848;2022-10-23T07:31:27;99940.66;;;11.63;100.00
23996;BME280;12207;50.076;8.848;2022-10-23T07:33:54;99948.91;;;11.96;100.00
23996;BME280;12207;50.076;8.848;2022-10-23T07:36:20;99943.91;;;12.20;100.00
23996;BME280;12207;50.076;8.848;2022-10-23T07:38:47;99946.97;;;12.55;100.00
23996;BME280;12207;50.076;8.848;2022-10-23T07:41:13;99958.44;;;12.86;100.00
23996;BME280;12207;50.076;8.848;2022-10-23T07:43:41;99950.78;;;13.10;100.00
23996;BME280;12207;50.076;8.848;2022-10-23T07:46:07;99948.59;;;13.20;100.00
23996;BME280;12207;50.076;8.848;2022-10-23T07:48:35;99942.50;;;13.39;100.00
23996;BME280;12207;50.076;8.848;2022-10-23T07:51:07;99950.56;;;13.50;100.00
23996;BME280;12207;50.076;8.848;2022-10-23T07:53:37;99947.28;;;13.78;100.00
23996;BME280;12207;50.076;8.848;2022-10-23T07:56:09;99936.34;;;14.09;100.00
23996;BME280;12207;50.076;8.848;2022-10-23T07:58:37;99937.47;;;14.18;100.00
23996;BME280;12207;50.076;8.848;2022-10-23T08:01:05;99935.47;;;14.36;100.00
23996;BME280;12207;50.076;8.848;2022-10-23T08:03:35;99942.03;;;14.52;100.00
23996;BME280;12207;50.076;8.848;2022-10-23T08:06:02;99944.69;;;14.55;100.00
23996;BME280;12207;50.076;8.848;2022-10-23T08:08:28;99940.34;;;14.54;100.00
23996;BME280;12207;50.076;8.848;2022-10-23T08:10:55;99925.81;;;14.81;100.00
23996;BME280;12207;50.076;8.848;2022-10-23T08:13:22;99933.38;;;15.06;100.00
23996;BME280;12207;50.076;8.848;2022-10-23T08:15:49;99922.34;;;14.81;100.00
23996;BME280;12207;50.076;8.848;2022-10-23T08:18:16;99931.25;;;14.92;100.00
23996;BME280;12207;50.076;8.848;2022-10-23T08:20:43;99934.31;;;14.52;100.00
23996;BME280;12207;50.076;8.848;2022-10-23T08:23:10;99933.00;;;14.65;100.00
23996;BME280;12207;50.076;8.848;2022-10-23T08:25:42;99941.59;;;14.94;100.00
23996;BME280;12207;50.076;8.848;2022-10-23T08:28:08;99939.78;;;14.91;100.00
23996;BME280;12207;50.076;8.848;2022-10-23T08:30:35;99938.84;;;15.18;100.00
23996;BME280;12207;50.076;8.848;2022-10-23T08:33:02;99932.59;;;15.08;100.00
23996;BME280;12207;50.076;8.848;2022-10-23T08:35:29;99931.13;;;15.18;100.00
23996;BME280;12207;50.076;8.848;2022-10-23T08:37:56;99929.75;;;15.29;100.00
23996;BME280;12207;50.076;8.848;2022-10-23T08:40:23;99935.81;;;15.64;100.00
23996;BME280;12207;50.076;8.848;2022-10-23T08:48:26;99914.97;;;16.20;100.00
23996;BME280;12207;50.076;8.848;2022-10-23T08:50:58;99909.66;;;16.12;100.00
23996;BME280;12207;50.076;8.848;2022-10-23T08:56:03;99896.63;;;16.06;100.00
23996;BME280;12207;50.076;8.848;2022-10-23T08:58:33;99887.53;;;15.86;100.00
23996;BME280;12207;50.076;8.848;2022-10-23T09:01:01;99898.13;;;15.65;100.00
23996;BME280;12207;50.076;8.848;2022-10-23T09:03:28;99898.16;;;15.35;100.00
23996;BME280;12207;50.076;8.848;2022-10-23T09:06:12;99909.16;;;15.61;100.00
23996;BME280;12207;50.076;8.848;2022-10-23T09:19:17;99888.94;;;16.08;100.00
23996;BME280;12207;50.076;8.848;2022-10-23T09:21:47;99900.72;;;15.66;100.00
23996;BME280;12207;50.076;8.848;2022-10-23T09:24:16;99896.16;;;15.88;100.00
23996;BME280;12207;50.076;8.848;2022-10-23T09:26:46;99907.97;;;15.80;100.00
23996;BME280;12207;50.076;8.848;2022-10-23T09:29:18;99906.78;;;15.37;100.00
23996;BME280;12207;50.076;8.848;2022-10-23T09:31:47;99898.78;;;15.58;100.00
23996;BME280;12207;50.076;8.848;2022-10-23T09:34:17;99896.56;;;15.70;100.00
23996;BME280;12207;50.076;8.848;2022-10-23T09:36:49;99895.31;;;15.56;100.00
23996;BME280;12207;50.076;8.848;2022-10-23T09:39:24;99884.75;;;15.45;100.00
23996;BME280;12207;50.076;8.848;2022-10-23T09:41:51;99871.91;;;15.46;100.00
23996;BME280;12207;50.076;8.848;2022-10-23T09:49:25;99875.75;;;15.95;100.00
23996;BME280;12207;50.076;8.848;2022-10-23T09:51:59;99888.28;;;16.16;100.00
23996;BME280;12207;50.076;8.848;2022-10-23T09:54:27;99886.63;;;16.18;100.00
23996;BME280;12207;50.076;8.848;2022-10-23T09:57:03;99883.16;;;16.18;100.00
23996;BME280;12207;50.076;8.848;2022-10-23T09:59:31;99881.28;;;16.11;100.00
23996;BME280;12207;50.076;8.848;2022-10-23T10:02:01;99876.13;;;16.11;100.00
23996;BME280;12207;50.076;8.848;2022-10-23T10:04:35;99879.19;;;16.32;100.00
23996;BME280;12207;50.076;8.848;2022-10-23T10:07:03;99880.31;;;16.81;100.00
23996;BME280;12207;50.076;8.848;2022-10-23T10:09:31;99891.00;;;17.00;100.00
23996;BME280;12207;50.076;8.848;2022-10-23T10:12:02;99887.63;;;17.04;100.00
23996;BME280;12207;50.076;8.848;2022-10-23T10:24:45;99868.44;;;17.32;100.00
23996;BME280;12207;50.076;8.848;2022-10-23T10:35:24;99845.88;;;17.22;100.00
23996;BME280;12207;50.076;8.848;2022-10-23T10:38:00;99839.50;;;17.01;100.00
23996;BME280;12207;50.076;8.848;2022-10-23T10:43:18;99838.81;;;17.13;100.00
23996;BME280;12207;50.076;8.848;2022-10-23T10:45:48;99836.19;;;17.10;100.00
23996;BME280;12207;50.076;8.848;2022-10-23T10:50:46;99834.47;;;17.09;100.00
23996;BME280;12207;50.076;8.848;2022-10-23T10:55:47;99818.91;;;17.04;100.00
23996;BME280;12207;50.076;8.848;2022-10-23T10:58:19;99816.06;;;16.91;100.00
23996;BME280;12207;50.076;8.848;2022-10-23T11:00:48;99825.41;;;16.85;100.00
23996;BME280;12207;50.076;8.848;2022-10-23T11:03:21;99819.22;;;16.76;100.00
23996;BME280;12207;50.076;8.848;2022-10-23T11:05:50;99829.06;;;16.97;100.00
23996;BME280;12207;50.076;8.848;2022-10-23T11:08:19;99823.84;;;16.94;100.00
23996;BME280;12207;50.076;8.848;2022-10-23T11:10:54;99822.81;;;16.84;100.00
23996;BME280;12207;50.076;8.848;2022-10-23T11:13:25;99812.19;;;16.70;100.00
23996;BME280;12207;50.076;8.848;2022-10-23T11:15:54;99807.19;;;16.76;100.00
23996;BME280;12207;50.076;8.848;2022-10-23T11:18:24;99795.16;;;16.77;100.00
23996;BME280;12207;50.076;8.848;2022-10-23T11:26:20;99775.25;;;17.14;100.00
23996;BME280;12207;50.076;8.848;2022-10-23T11:31:47;99784.75;;;17.68;100.00
23996;BME280;12207;50.076;8.848;2022-10-23T11:36:57;99780.25;;;18.11;100.00
23996;BME280;12207;50.076;8.848;2022-10-23T11:39:27;99774.44;;;18.24;100.00
23996;BME280;12207;50.076;8.848;2022-10-23T11:41:55;99763.13;;;18.16;100.00
23996;BME280;12207;50.076;8.848;2022-10-23T11:44:25;99766.16;;;17.87;100.00
23996;BME280;12207;50.076;8.848;2022-10-23T11:47:00;99758.94;;;18.24;100.00
23996;BME280;12207;50.076;8.848;2022-10-23T11:49:26;99760.94;;;18.45;100.00
23996;BME280;12207;50.076;8.848;2022-10-23T11:52:03;99770.31;;;18.40;100.00
23996;BME280;12207;50.076;8.848;2022-10-23T11:54:30;99767.59;;;18.28;100.00
23996;BME280;12207;50.076;8.848;2022-10-23T11:59:33;99765.19;;;17.79;100.00
23996;BME280;12207;50.076;8.848;2022-10-23T12:02:02;99752.16;;;17.73;100.00
23996;BME280;12207;50.076;8.848;2022-10-23T12:07:01;99743.13;;;18.01;100.00
23996;BME280;12207;50.076;8.848;2022-10-23T12:09:39;99742.50;;;18.17;100.00
23996;BME280;12207;50.076;8.848;2022-10-23T12:15:05;99738.72;;;18.62;100.00
23996;BME280;12207;50.076;8.848;2022-10-23T12:19:51;99742.47;;;18.86;100.00
23996;BME280;12207;50.076;8.848;2022-10-23T12:22:18;99739.91;;;18.90;100.00
23996;BME280;12207;50.076;8.848;2022-10-23T12:24:51;99734.03;;;19.04;100.00
23996;BME280;12207;50.076;8.848;2022-10-23T12:27:24;99726.28;;;19.05;100.00
23996;BME280;12207;50.076;8.848;2022-10-23T12:30:16;99715.09;;;19.08;100.00
23996;BME280;12207;50.076;8.848;2022-10-23T12:33:02;99711.50;;;18.94;100.00
23996;BME280;12207;50.076;8.848;2022-10-23T12:35:47;99697.44;;;18.68;100.00
23996;BME280;12207;50.076;8.848;2022-10-23T12:38:17;99687.31;;;18.88;100.00
23996;BME280;12207;50.076;8.848;2022-10-23T12:40:45;99682.22;;;18.96;100.00
23996;BME280;12207;50.076;8.848;2022-10-23T12:43:20;99676.97;;;18.88;100.00
23996;BME280;12207;50.076;8.848;2022-10-23T12:45:49;99678.72;;;18.91;100.00
23996;BME280;12207;50.076;8.848;2022-10-23T12:48:19;99684.72;;;18.88;100.00
23996;BME280;12207;50.076;8.848;2022-10-23T12:50:47;99672.78;;;19.01;100.00
23996;BME280;12207;50.076;8.848;2022-10-23T12:53:16;99677.16;;;19.07;100.00
23996;BME280;12207;50.076;8.848;2022-10-23T12:58:20;99666.56;;;18.82;100.00
23996;BME280;12207;50.076;8.848;2022-10-23T13:00:51;99656.22;;;18.82;100.00
23996;BME280;12207;50.076;8.848;2022-10-23T13:03:19;99651.91;;;18.81;100.00
23996;BME280;12207;50.076;8.848;2022-10-23T13:05:46;99658.66;;;18.65;100.00
23996;BME280;12207;50.076;8.848;2022-10-23T13:08:12;99646.53;;;18.60;100.00
23996;BME280;12207;50.076;8.848;2022-10-23T13:10:39;99642.31;;;18.68;100.00
23996;BME280;12207;50.076;8.848;2022-10-23T13:13:06;99633.78;;;18.77;100.00
23996;BME280;12207;50.076;8.848;2022-10-23T13:15:40;99634.53;;;18.66;100.00
23996;BME280;12207;50.076;8.848;2022-10-23T13:18:08;99625.81;;;18.58;100.00
23996;BME280;12207;50.076;8.848;2022-10-23T13:20:36;99615.50;;;18.60;100.00
23996;BME280;12207;50.076;8.848;2022-10-23T13:25:33;99626.75;;;18.66;100.00
23996;BME280;12207;50.076;8.848;2022-10-23T13:30:34;99620.69;;;18.61;100.00
23996;BME280;12207;50.076;8.848;2022-10-23T13:35:57;99604.56;;;18.84;100.00
23996;BME280;12207;50.076;8.848;2022-10-23T13:38:28;99602.91;;;18.94;100.00
23996;BME280;12207;50.076;8.848;2022-10-23T13:40:56;99609.03;;;19.05;100.00
23996;BME280;12207;50.076;8.848;2022-10-23T13:43:23;99602.06;;;18.96;100.00
23996;BME280;12207;50.076;8.848;2022-10-23T13:45:50;99600.34;;;19.00;100.00
23996;BME280;12207;50.076;8.848;2022-10-23T13:48:17;99600.25;;;18.87;100.00
23996;BME280;12207;50.076;8.848;2022-10-23T13:50:44;99598.50;;;18.85;100.00
23996;BME280;12207;50.076;8.848;2022-10-23T13:53:13;99595.03;;;18.78;100.00
23996;BME280;12207;50.076;8.848;2022-10-23T13:55:44;99586.34;;;18.73;100.00
23996;BME280;12207;50.076;8.848;2022-10-23T13:58:11;99576.81;;;18.71;100.00
23996;BME280;12207;50.076;8.848;2022-10-23T14:00:38;99574.34;;;18.78;100.00
23996;BME280;12207;50.076;8.848;2022-10-23T14:03:05;99571.69;;;18.74;100.00
23996;BME280;12207;50.076;8.848;2022-10-23T14:05:31;99564.84;;;18.79;100.00
23996;BME280;12207;50.076;8.848;2022-10-23T14:07:58;99576.84;;;18.72;100.00
23996;BME280;12207;50.076;8.848;2022-10-23T14:10:24;99562.31;;;18.80;100.00
23996;BME280;12207;50.076;8.848;2022-10-23T14:12:51;99557.09;;;18.76;100.00
23996;BME280;12207;50.076;8.848;2022-10-23T14:15:20;99552.78;;;18.75;100.00
23996;BME280;12207;50.076;8.848;2022-10-23T14:17:47;99549.22;;;18.66;100.00
23996;BME280;12207;50.076;8.848;2022-10-23T14:20:13;99553.44;;;18.58;100.00
23996;BME280;12207;50.076;8.848;2022-10-23T14:22:41;99555.19;;;18.61;100.00
23996;BME280;12207;50.076;8.848;2022-10-23T14:25:07;99560.41;;;18.62;100.00
23996;BME280;12207;50.076;8.848;2022-10-23T14:27:34;99558.69;;;18.66;100.00
23996;BME280;12207;50.076;8.848;2022-10-23T14:30:00;99554.38;;;18.63;100.00
23996;BME280;12207;50.076;8.848;2022-10-23T14:32:28;99557.88;;;18.72;100.00
23996;BME280;12207;50.076;8.848;2022-10-23T14:34:55;99553.53;;;18.67;100.00